Time;durP1;ratioP1;P1;durP2;ratioP2;P2;SDS_P1;SDS_P2;PMS_P1;PMS_P2;Temp;Humidity;BMP_temperature;BMP_pressure;BME280_temperature;BME280_humidity;BME280_pressure;Samples;Min_cycle;Max_cycle;Signal;HPM_P1;HPM_P2
2022/05/08 00:02:16;;;;;;;22.90;5.53;;;11.00;99.90;;;;;;5052912;28;20566;-63
2022/05/08 00:04:42;;;;;;;21.33;5.55;;;10.90;99.90;;;;;;5054105;28;20045;-63
2022/05/08 00:07:08;;;;;;;24.45;5.20;;;10.90;99.90;;;;;;5052501;28;20468;-65
2022/05/08 00:09:34;;;;;;;18.55;4.55;;;10.80;99.90;;;;;;5053855;28;20082;-63
2022/05/08 00:12:02;;;;;;;18.48;5.78;;;10.80;99.90;;;;;;5053674;28;20030;-64
2022/05/08 00:14:27;;;;;;;19.20;4.65;;;10.70;99.90;;;;;;5053858;28;20021;-63
2022/05/08 00:16:53;;;;;;;18.60;4.70;;;10.70;99.90;;;;;;5053601;28;20059;-62
2022/05/08 00:19:19;;;;;;;23.98;5.07;;;10.70;99.90;;;;;;5053601;28;20088;-66
2022/05/08 00:21:44;;;;;;;16.63;4.55;;;10.60;99.90;;;;;;5053685;28;20028;-61
2022/05/08 00:24:10;;;;;;;14.70;4.20;;;10.60;99.90;;;;;;5054746;28;20120;-62
2022/05/08 00:26:35;;;;;;;16.50;4.60;;;10.60;99.90;;;;;;5054622;28;20121;-62
2022/05/08 00:29:02;;;;;;;15.65;3.72;;;10.60;99.90;;;;;;5054574;28;20044;-63
2022/05/08 00:31:28;;;;;;;17.25;5.28;;;10.50;99.90;;;;;;5053532;28;20473;-62
2022/05/08 00:33:54;;;;;;;20.55;4.38;;;10.40;99.90;;;;;;5054817;28;20074;-62
2022/05/08 00:36:20;;;;;;;22.65;5.20;;;10.40;99.90;;;;;;5054722;28;20361;-62
2022/05/08 00:38:45;;;;;;;23.98;5.13;;;10.40;99.90;;;;;;5052540;28;20026;-62
2022/05/08 00:41:11;;;;;;;20.17;4.50;;;10.30;99.90;;;;;;5054103;28;20054;-62
2022/05/08 00:43:39;;;;;;;18.20;4.32;;;10.30;99.90;;;;;;5054650;28;20039;-62
2022/05/08 00:46:09;;;;;;;20.65;4.82;;;10.30;99.90;;;;;;5053670;28;20025;-62
2022/05/08 00:48:36;;;;;;;18.40;4.35;;;10.20;99.90;;;;;;5054379;28;20040;-62
2022/05/08 00:51:04;;;;;;;20.65;4.35;;;10.20;99.90;;;;;;5054262;28;20021;-62
2022/05/08 00:53:38;;;;;;;25.75;5.22;;;10.20;99.90;;;;;;5054150;28;20501;-64
2022/05/08 00:56:06;;;;;;;19.02;4.90;;;10.20;99.90;;;;;;5054742;28;20024;-62
2022/05/08 00:58:33;;;;;;;16.73;3.92;;;10.20;99.90;;;;;;5054754;28;20025;-62
2022/05/08 01:00:59;;;;;;;18.58;5.47;;;10.10;99.90;;;;;;5054263;28;20037;-63
2022/05/08 01:03:25;;;;;;;17.60;4.10;;;10.10;99.90;;;;;;5054117;28;20079;-62
2022/05/08 01:05:55;;;;;;;18.00;5.28;;;10.00;99.90;;;;;;5054221;28;20096;-62
2022/05/08 01:08:22;;;;;;;12.73;3.40;;;10.10;99.90;;;;;;5053924;28;20060;-62
2022/05/08 01:10:48;;;;;;;22.92;4.65;;;10.00;99.90;;;;;;5053937;28;20025;-62
2022/05/08 01:13:13;;;;;;;24.65;5.00;;;10.00;99.90;;;;;;5053713;28;20033;-62
2022/05/08 01:15:43;;;;;;;23.50;4.38;;;10.00;99.90;;;;;;5053673;28;20051;-62
2022/05/08 01:18:11;;;;;;;16.20;4.10;;;10.00;99.90;;;;;;5053699;28;20127;-62
2022/05/08 01:20:37;;;;;;;20.77;4.72;;;10.00;99.90;;;;;;5052203;28;20072;-62
2022/05/08 01:23:04;;;;;;;22.08;4.45;;;9.90;99.90;;;;;;5053750;28;20061;-62
2022/05/08 01:25:29;;;;;;;17.50;3.92;;;10.00;99.90;;;;;;5053470;28;20021;-62
2022/05/08 01:27:55;;;;;;;16.15;3.58;;;9.90;99.90;;;;;;5053587;28;20025;-62
2022/05/08 01:30:22;;;;;;;19.52;4.07;;;9.90;99.90;;;;;;5053943;28;20039;-62
2022/05/08 01:32:48;;;;;;;19.25;4.57;;;9.90;99.90;;;;;;5053326;28;20016;-62
2022/05/08 01:35:14;;;;;;;23.92;3.95;;;9.80;99.90;;;;;;5052762;28;20628;-62
2022/05/08 01:37:40;;;;;;;24.30;5.05;;;9.80;99.90;;;;;;5053538;28;20108;-62
2022/05/08 01:40:07;;;;;;;23.35;4.55;;;9.80;99.90;;;;;;5053170;28;20381;-61
2022/05/08 01:42:33;;;;;;;24.23;4.25;;;9.80;99.90;;;;;;5053116;28;20021;-62
2022/05/08 01:44:58;;;;;;;27.48;4.75;;;9.80;99.90;;;;;;5053600;28;20033;-62
2022/05/08 01:50:08;;;;;;;18.83;4.00;;;9.80;99.90;;;;;;5052523;28;20035;-62
2022/05/08 01:52:34;;;;;;;17.73;3.65;;;9.70;99.90;;;;;;5052841;28;20400;-62
2022/05/08 01:55:01;;;;;;;13.80;3.83;;;9.70;99.90;;;;;;5053229;28;20433;-62
2022/05/08 01:57:26;;;;;;;19.77;5.93;;;9.70;99.90;;;;;;5052926;28;20025;-63
2022/05/08 01:59:52;;;;;;;15.52;3.30;;;9.70;99.90;;;;;;5052795;28;20060;-63
2022/05/08 02:02:19;;;;;;;20.20;3.80;;;9.60;99.90;;;;;;5052627;28;20031;-63
2022/05/08 02:04:45;;;;;;;21.08;4.47;;;9.60;99.90;;;;;;5052905;28;20116;-62
2022/05/08 02:07:11;;;;;;;23.20;5.13;;;9.70;99.90;;;;;;5052906;28;20108;-63
2022/05/08 02:09:37;;;;;;;24.02;5.32;;;9.60;99.90;;;;;;5051505;28;20485;-63
2022/05/08 02:12:03;;;;;;;20.25;3.30;;;9.60;99.90;;;;;;5052675;28;20150;-63
2022/05/08 02:14:28;;;;;;;18.25;3.45;;;9.60;99.90;;;;;;5052901;28;20123;-63
2022/05/08 02:16:54;;;;;;;25.55;4.95;;;9.60;99.90;;;;;;5052366;28;20428;-62
2022/05/08 02:19:19;;;;;;;21.58;4.38;;;9.60;99.90;;;;;;5052470;28;20438;-62
2022/05/08 02:21:45;;;;;;;21.15;3.85;;;9.50;99.90;;;;;;5052776;28;20408;-62
2022/05/08 02:24:10;;;;;;;17.63;4.80;;;9.60;99.90;;;;;;5051085;28;20025;-63
2022/05/08 02:26:36;;;;;;;18.42;3.58;;;9.50;99.90;;;;;;5052860;28;20053;-63
2022/05/08 02:29:02;;;;;;;20.92;3.95;;;9.50;99.90;;;;;;5052678;28;20124;-62
2022/05/08 02:31:27;;;;;;;19.08;3.50;;;9.50;99.90;;;;;;5052224;28;20096;-62
2022/05/08 02:33:53;;;;;;;23.63;4.90;;;9.50;99.90;;;;;;5051280;28;20045;-62
2022/05/08 02:36:19;;;;;;;18.02;3.42;;;9.50;99.90;;;;;;5052543;28;20092;-62
2022/05/08 02:38:44;;;;;;;15.43;3.40;;;9.50;99.90;;;;;;5052367;28;20059;-62
2022/05/08 02:41:10;;;;;;;26.33;4.35;;;9.50;99.90;;;;;;5052160;28;20037;-62
2022/05/08 02:43:35;;;;;;;21.55;3.90;;;9.40;99.90;;;;;;5052320;28;20025;-62
2022/05/08 02:46:02;;;;;;;16.75;4.35;;;9.40;99.90;;;;;;5052115;28;20083;-62
2022/05/08 02:48:27;;;;;;;26.40;4.38;;;9.40;99.90;;;;;;5052275;28;20017;-63
2022/05/08 02:50:53;;;;;;;22.23;3.70;;;9.40;99.90;;;;;;5052697;28;20368;-63
2022/05/08 02:53:20;;;;;;;19.63;3.92;;;9.40;99.90;;;;;;5052091;28;20120;-62
2022/05/08 02:58:32;;;;;;;23.13;3.97;;;9.30;99.90;;;;;;5040731;28;20456;-62
2022/05/08 03:00:59;;;;;;;18.52;3.70;;;9.30;99.90;;;;;;5052078;28;20556;-62
2022/05/08 03:03:25;;;;;;;16.88;3.85;;;9.30;99.90;;;;;;5055543;28;20017;-62
2022/05/08 03:05:51;;;;;;;19.00;3.50;;;9.30;99.90;;;;;;5056269;28;20028;-62
2022/05/08 03:08:17;;;;;;;20.42;4.15;;;9.30;99.90;;;;;;5056165;28;20329;-62
2022/05/08 03:13:29;;;;;;;24.90;4.53;;;9.30;99.90;;;;;;5056024;28;20062;-61
2022/05/08 03:15:54;;;;;;;25.73;5.32;;;9.20;99.90;;;;;;5056129;28;20100;-62
2022/05/08 03:18:20;;;;;;;15.02;3.67;;;9.20;99.90;;;;;;5056207;28;20108;-62
2022/05/08 03:20:46;;;;;;;24.13;4.38;;;9.20;99.90;;;;;;5055611;28;20040;-63
2022/05/08 03:23:11;;;;;;;24.67;4.47;;;9.20;99.90;;;;;;5054744;28;20025;-62
2022/05/08 03:25:37;;;;;;;28.95;4.05;;;9.20;99.90;;;;;;5054327;28;20039;-62
2022/05/08 03:28:03;;;;;;;25.17;4.07;;;9.10;99.90;;;;;;5055722;28;20025;-62
2022/05/08 03:30:28;;;;;;;27.25;4.70;;;9.10;99.90;;;;;;5056377;28;20032;-62
2022/05/08 03:32:56;;;;;;;25.10;4.55;;;9.10;99.90;;;;;;5055763;28;20025;-62
2022/05/08 03:35:22;;;;;;;17.23;4.07;;;9.10;99.90;;;;;;5056055;28;20025;-62
2022/05/08 03:37:47;;;;;;;19.95;4.07;;;9.10;99.90;;;;;;5056027;28;20024;-62
2022/05/08 03:40:13;;;;;;;19.20;4.20;;;9.10;99.90;;;;;;5055097;28;20060;-62
2022/05/08 03:42:38;;;;;;;22.77;4.07;;;9.10;99.90;;;;;;5055545;28;20104;-62
2022/05/08 03:45:04;;;;;;;19.15;3.53;;;9.10;99.90;;;;;;5054362;28;20021;-62
2022/05/08 03:47:29;;;;;;;23.20;5.07;;;9.10;99.90;;;;;;5055595;28;20107;-62
2022/05/08 03:49:56;;;;;;;20.83;4.38;;;9.00;99.90;;;;;;5055534;28;20065;-63
2022/05/08 03:52:21;;;;;;;17.48;3.75;;;9.00;99.90;;;;;;5055428;28;20036;-62
2022/05/08 03:54:47;;;;;;;14.20;3.33;;;9.00;99.90;;;;;;5055095;28;20025;-62
2022/05/08 03:57:12;;;;;;;22.30;4.65;;;9.00;99.90;;;;;;5055254;28;20103;-62
2022/05/08 03:59:38;;;;;;;21.75;4.00;;;9.00;99.90;;;;;;5055471;28;20033;-62
2022/05/08 04:02:03;;;;;;;20.90;4.00;;;9.00;99.90;;;;;;5055025;28;20445;-63
2022/05/08 04:04:29;;;;;;;24.05;4.35;;;8.90;99.90;;;;;;5054791;28;20083;-61
2022/05/08 04:06:54;;;;;;;21.05;5.35;;;8.90;99.90;;;;;;5054892;28;20028;-62
2022/05/08 04:09:20;;;;;;;27.77;4.35;;;8.90;99.90;;;;;;5054634;28;20021;-62
2022/05/08 04:11:45;;;;;;;19.30;4.63;;;8.90;99.90;;;;;;5053526;28;20029;-62
2022/05/08 04:14:12;;;;;;;25.17;4.07;;;8.90;99.90;;;;;;5053979;28;20032;-62
2022/05/08 04:16:38;;;;;;;17.30;4.43;;;8.90;99.90;;;;;;5054677;28;20017;-62
2022/05/08 04:19:03;;;;;;;20.00;4.22;;;8.90;99.90;;;;;;5054705;28;20029;-62
2022/05/08 04:21:29;;;;;;;16.42;4.00;;;8.90;99.90;;;;;;5054594;28;20469;-61
2022/05/08 04:26:38;;;;;;;19.02;4.10;;;8.90;99.90;;;;;;5054886;28;20499;-62
2022/05/08 04:29:04;;;;;;;19.90;4.25;;;8.90;99.90;;;;;;5054544;28;20080;-62
2022/05/08 04:31:29;;;;;;;14.82;3.85;;;8.90;99.90;;;;;;5054463;28;20074;-61
2022/05/08 04:33:55;;;;;;;22.23;4.40;;;8.90;99.90;;;;;;5054620;28;20441;-62
2022/05/08 04:36:20;;;;;;;19.98;4.13;;;8.90;99.90;;;;;;5054432;28;20025;-62
2022/05/08 04:38:46;;;;;;;19.88;4.68;;;9.00;99.90;;;;;;5053883;28;20029;-62
2022/05/08 04:41:12;;;;;;;15.35;4.07;;;9.00;99.90;;;;;;5054377;28;20043;-62
2022/05/08 04:43:37;;;;;;;17.05;4.50;;;9.00;99.90;;;;;;5054229;28;20025;-62
2022/05/08 04:46:03;;;;;;;24.88;4.95;;;9.10;99.90;;;;;;5054096;28;20350;-62
2022/05/08 04:48:29;;;;;;;22.13;3.97;;;9.10;99.90;;;;;;5053900;28;20409;-62
2022/05/08 04:50:54;;;;;;;17.75;4.25;;;9.10;99.90;;;;;;5054359;28;20480;-62
2022/05/08 04:53:20;;;;;;;18.35;4.75;;;9.10;99.90;;;;;;5054140;28;20036;-62
2022/05/08 04:55:46;;;;;;;11.73;4.03;;;9.20;99.90;;;;;;5054383;28;20116;-62
2022/05/08 04:58:11;;;;;;;18.15;4.38;;;9.20;99.90;;;;;;5054364;28;20420;-62
2022/05/08 05:00:37;;;;;;;16.48;3.97;;;9.20;99.90;;;;;;5052446;28;20040;-62
2022/05/08 05:03:03;;;;;;;23.42;5.78;;;9.30;99.90;;;;;;5053888;28;20067;-62
2022/05/08 05:05:29;;;;;;;23.30;5.55;;;9.30;99.90;;;;;;5052817;28;20412;-62
2022/05/08 05:07:55;;;;;;;18.17;3.83;;;9.40;99.90;;;;;;5052366;28;20067;-61
2022/05/08 05:10:21;;;;;;;14.25;4.07;;;9.50;99.90;;;;;;5054129;28;20074;-62
2022/05/08 05:12:47;;;;;;;15.77;4.43;;;9.50;99.90;;;;;;5053856;28;20028;-62
2022/05/08 05:15:12;;;;;;;18.38;4.60;;;9.60;99.90;;;;;;5054101;28;20025;-62
2022/05/08 05:17:39;;;;;;;19.80;4.20;;;9.70;99.90;;;;;;5053759;28;20021;-62
2022/05/08 05:20:06;;;;;;;22.88;4.03;;;9.80;99.90;;;;;;5053886;28;20086;-62
2022/05/08 05:22:31;;;;;;;24.88;4.22;;;9.90;99.90;;;;;;5053716;28;20108;-62
2022/05/08 05:24:57;;;;;;;19.92;4.25;;;9.90;99.90;;;;;;5052660;28;20107;-62
2022/05/08 05:27:23;;;;;;;23.85;4.05;;;10.00;99.90;;;;;;5053893;28;20466;-62
2022/05/08 05:29:49;;;;;;;21.08;4.15;;;10.10;99.90;;;;;;5053666;28;20061;-62
2022/05/08 05:32:14;;;;;;;12.18;2.90;;;10.20;99.90;;;;;;5053612;28;20466;-62
2022/05/08 05:34:41;;;;;;;19.85;4.60;;;10.30;99.90;;;;;;5053633;28;20027;-62
2022/05/08 05:37:07;;;;;;;14.60;3.38;;;10.40;99.90;;;;;;5053136;28;20029;-62
2022/05/08 05:39:33;;;;;;;22.35;4.25;;;10.50;99.90;;;;;;5052014;28;20020;-62
2022/05/08 05:41:58;;;;;;;21.85;4.97;;;10.60;99.90;;;;;;5053565;28;20013;-62
2022/05/08 05:44:24;;;;;;;22.95;3.72;;;10.70;99.90;;;;;;5053236;28;20453;-62
2022/05/08 05:49:34;;;;;;;15.13;3.50;;;10.90;99.90;;;;;;5052831;28;20381;-62
2022/05/08 05:52:00;;;;;;;14.07;2.90;;;11.00;99.90;;;;;;5053488;28;20017;-63
2022/05/08 05:54:26;;;;;;;18.48;3.30;;;11.20;99.90;;;;;;5053126;28;20021;-62
2022/05/08 05:56:51;;;;;;;15.70;2.97;;;11.30;99.90;;;;;;5051890;28;20017;-62
2022/05/08 05:59:17;;;;;;;20.40;4.93;;;11.50;99.90;;;;;;5053020;28;20029;-62
2022/05/08 06:01:43;;;;;;;15.50;3.22;;;11.60;99.90;;;;;;5053143;28;20106;-62
2022/05/08 06:04:09;;;;;;;14.10;2.97;;;11.80;99.90;;;;;;5052653;28;20460;-62
2022/05/08 06:06:35;;;;;;;14.10;3.22;;;12.10;99.90;;;;;;5052716;28;20036;-61
2022/05/08 06:09:00;;;;;;;15.85;3.10;;;12.30;99.90;;;;;;5053550;28;20033;-61
2022/05/08 06:11:26;;;;;;;10.45;2.33;;;12.70;99.90;;;;;;5052909;28;20021;-62
2022/05/08 06:13:51;;;;;;;20.02;5.22;;;13.20;99.90;;;;;;5053075;28;20025;-62
2022/05/08 06:16:17;;;;;;;11.90;2.70;;;13.60;99.90;;;;;;5053069;28;20096;-62
2022/05/08 06:18:44;;;;;;;18.20;3.80;;;14.10;99.90;;;;;;5052509;28;20021;-62
2022/05/08 06:21:10;;;;;;;15.25;3.08;;;14.50;99.90;;;;;;5052997;28;20025;-61
2022/05/08 06:23:35;;;;;;;18.67;2.45;;;15.00;99.90;;;;;;5052835;28;20044;-62
2022/05/08 06:26:02;;;;;;;14.65;2.78;;;15.50;99.90;;;;;;5052873;28;20492;-62
2022/05/08 06:28:29;;;;;;;12.57;2.63;;;15.80;99.90;;;;;;5052604;28;20461;-62
2022/05/08 06:30:54;;;;;;;14.18;2.47;;;16.00;99.90;;;;;;5052590;28;20025;-63
2022/05/08 06:33:20;;;;;;;10.52;2.40;;;16.40;99.40;;;;;;5052289;28;20036;-61
2022/05/08 06:35:46;;;;;;;13.73;3.13;;;16.70;98.30;;;;;;5052489;28;20013;-61
2022/05/08 06:38:12;;;;;;;15.48;2.70;;;17.10;97.90;;;;;;5052392;28;20369;-62
2022/05/08 06:40:39;;;;;;;15.00;3.17;;;17.50;97.30;;;;;;5052557;28;20029;-62
2022/05/08 06:43:08;;;;;;;15.10;2.90;;;18.00;96.60;;;;;;5051456;28;20116;-63
2022/05/08 06:45:35;;;;;;;9.82;2.72;;;18.50;96.00;;;;;;5051231;28;20136;-62
2022/05/08 06:48:00;;;;;;;8.60;2.15;;;19.10;94.50;;;;;;5052696;28;20078;-63
2022/05/08 06:50:26;;;;;;;11.82;2.22;;;19.50;93.80;;;;;;5052376;28;20111;-62
2022/05/08 06:52:51;;;;;;;13.13;2.35;;;19.60;92.50;;;;;;5052525;28;20025;-63
2022/05/08 06:55:19;;;;;;;13.73;3.17;;;19.60;92.20;;;;;;5051266;28;20016;-63
2022/05/08 06:57:44;;;;;;;13.70;2.53;;;19.30;92.20;;;;;;5052638;28;20025;-62
2022/05/08 07:02:54;;;;;;;13.15;3.20;;;18.10;93.20;;;;;;5052590;28;20500;-62
2022/05/08 07:05:20;;;;;;;10.80;2.65;;;17.50;93.90;;;;;;5052519;28;20021;-62
2022/05/08 07:07:45;;;;;;;7.05;1.77;;;17.10;94.80;;;;;;5052456;28;20028;-62
2022/05/08 07:10:11;;;;;;;13.70;2.45;;;16.70;95.20;;;;;;5052374;28;20175;-62
2022/05/08 07:12:36;;;;;;;14.32;3.15;;;16.00;96.10;;;;;;5052295;28;20017;-62
2022/05/08 07:15:03;;;;;;;14.88;2.67;;;15.70;97.00;;;;;;5051773;28;20423;-63
2022/05/08 07:17:29;;;;;;;11.90;2.40;;;15.40;97.30;;;;;;5052585;28;20048;-62
2022/05/08 07:19:55;;;;;;;10.48;2.20;;;15.10;97.50;;;;;;5051040;28;20449;-62
2022/05/08 07:22:22;;;;;;;6.93;1.95;;;15.20;97.20;;;;;;5052353;28;20017;-63
2022/05/08 07:24:47;;;;;;;14.15;2.40;;;15.10;97.10;;;;;;5052324;28;20022;-62
2022/05/08 07:27:13;;;;;;;9.77;2.00;;;15.10;97.50;;;;;;5051874;28;20028;-62
2022/05/08 07:29:43;;;;;;;13.50;2.92;;;15.20;97.20;;;;;;5051698;28;20033;-62
2022/05/08 07:32:10;;;;;;;15.55;2.50;;;15.20;97.00;;;;;;5052113;28;20056;-62
2022/05/08 07:37:20;;;;;;;10.80;2.03;;;15.40;96.90;;;;;;5052011;28;20063;-62
2022/05/08 07:39:47;;;;;;;7.72;2.45;;;15.40;96.70;;;;;;5052012;28;20069;-63
2022/05/08 07:42:12;;;;;;;6.68;1.63;;;15.40;97.20;;;;;;5051924;28;20428;-62
2022/05/08 07:44:38;;;;;;;7.68;1.73;;;15.50;96.00;;;;;;5047478;28;20097;-62
2022/05/08 07:47:04;;;;;;;11.63;2.53;;;15.50;96.30;;;;;;5050027;28;20106;-62
2022/05/08 07:49:30;;;;;;;11.35;2.15;;;15.60;96.60;;;;;;5053235;28;20503;-62
2022/05/08 07:51:55;;;;;;;7.38;1.85;;;15.90;96.50;;;;;;5053910;28;20021;-62
2022/05/08 07:54:21;;;;;;;9.00;2.03;;;16.20;95.40;;;;;;5055120;28;20075;-62
2022/05/08 07:56:46;;;;;;;10.80;2.00;;;16.50;94.80;;;;;;5055187;28;20021;-62
2022/05/08 07:59:12;;;;;;;11.75;2.05;;;17.00;94.60;;;;;;5055424;28;20020;-62
2022/05/08 08:01:38;;;;;;;8.88;2.15;;;17.40;93.60;;;;;;5055334;28;20437;-62
2022/05/08 08:04:04;;;;;;;6.97;2.50;;;17.70;93.00;;;;;;5055074;28;20064;-62
2022/05/08 08:06:31;;;;;;;11.15;2.10;;;18.10;92.40;;;;;;5055118;28;20053;-62
2022/05/08 08:08:57;;;;;;;10.50;2.13;;;18.70;91.50;;;;;;5053678;28;20376;-62
2022/05/08 08:11:23;;;;;;;9.90;2.00;;;19.30;91.00;;;;;;5055047;28;20108;-62
2022/05/08 08:13:48;;;;;;;8.85;2.25;;;20.20;89.50;;;;;;5054434;28;20043;-62
2022/05/08 08:16:14;;;;;;;8.73;2.13;;;20.90;87.00;;;;;;5055111;28;20025;-62
2022/05/08 08:18:44;;;;;;;7.70;1.80;;;21.60;84.50;;;;;;5054969;28;20100;-62
2022/05/08 08:21:13;;;;;;;12.57;1.92;;;22.00;82.50;;;;;;5054892;28;20037;-62
2022/05/08 08:23:40;;;;;;;5.65;1.55;;;21.70;81.80;;;;;;5054663;28;20095;-62
2022/05/08 08:26:07;;;;;;;9.13;2.10;;;21.50;81.60;;;;;;5054933;28;20021;-62
2022/05/08 08:28:33;;;;;;;10.13;1.90;;;21.50;81.40;;;;;;5054836;28;20064;-61
2022/05/08 08:30:58;;;;;;;10.00;1.83;;;21.80;80.90;;;;;;5054601;28;20449;-61
2022/05/08 08:33:26;;;;;;;7.97;1.92;;;22.70;79.90;;;;;;5054705;28;20025;-62
2022/05/08 08:35:52;;;;;;;8.45;2.05;;;23.60;75.00;;;;;;5054841;28;20053;-62
2022/05/08 08:38:17;;;;;;;9.13;1.92;;;24.30;74.10;;;;;;5053563;28;20114;-61
2022/05/08 08:40:47;;;;;;;8.80;2.22;;;24.90;71.90;;;;;;5050247;28;20040;-61
2022/05/08 08:43:16;;;;;;;8.13;1.55;;;25.00;70.80;;;;;;5053686;28;20365;-64
2022/05/08 08:48:31;;;;;;;8.35;1.60;;;25.30;68.10;;;;;;5054068;28;20146;-62
2022/05/08 08:50:58;;;;;;;7.80;1.55;;;25.60;65.30;;;;;;5054087;28;20523;-62
2022/05/08 08:53:25;;;;;;;7.13;1.80;;;25.80;65.30;;;;;;5053033;28;20029;-63
2022/05/08 08:55:51;;;;;;;13.95;1.92;;;26.10;64.30;;;;;;5054513;28;20028;-62
2022/05/08 08:58:17;;;;;;;6.65;1.52;;;26.10;63.30;;;;;;5054313;28;20033;-63
2022/05/08 09:00:47;;;;;;;8.23;1.95;;;26.00;62.80;;;;;;5053810;28;20469;-60
2022/05/08 09:03:25;;;;;;;11.43;1.83;;;25.80;62.90;;;;;;5049552;28;20021;-63
2022/05/08 09:05:58;;;;;;;6.13;1.70;;;26.00;62.90;;;;;;5053835;28;20109;-65
2022/05/08 09:08:26;;;;;;;3.63;1.40;;;26.70;62.00;;;;;;5054512;28;20017;-63
2022/05/08 09:10:53;;;;;;;5.93;1.45;;;27.20;60.70;;;;;;5054058;28;20072;-65
2022/05/08 09:13:22;;;;;;;9.15;2.00;;;27.30;60.10;;;;;;5053929;28;20430;-66
2022/05/08 09:15:48;;;;;;;11.77;1.90;;;27.10;59.50;;;;;;5053469;28;20021;-67
2022/05/08 09:18:14;;;;;;;6.00;1.50;;;27.20;59.10;;;;;;5053841;28;20032;-65
2022/05/08 09:20:44;;;;;;;11.77;1.83;;;27.40;58.30;;;;;;5053691;28;20079;-65
2022/05/08 09:23:14;;;;;;;4.63;1.40;;;27.60;58.10;;;;;;5053641;28;20024;-65
2022/05/08 09:25:59;;;;;;;4.85;1.42;;;27.80;57.50;;;;;;5053853;28;20094;-67
2022/05/08 09:28:43;;;;;;;7.22;1.73;;;28.10;56.50;;;;;;5051835;28;20052;-63
2022/05/08 09:31:16;;;;;;;6.75;1.88;;;27.80;56.90;;;;;;5053706;28;20021;-62
2022/05/08 09:33:41;;;;;;;9.45;1.80;;;27.50;56.40;;;;;;5053649;28;20025;-64
2022/05/08 09:36:24;;;;;;;7.70;1.90;;;27.30;56.70;;;;;;5053341;28;20023;-67
2022/05/08 09:38:52;;;;;;;5.10;1.38;;;27.60;56.90;;;;;;5053095;28;20051;-62
2022/05/08 09:41:26;;;;;;;8.32;2.08;;;27.90;56.00;;;;;;5053232;28;20112;-65
2022/05/08 09:43:54;;;;;;;7.32;1.73;;;27.90;56.00;;;;;;5053085;28;20033;-66
2022/05/08 09:46:20;;;;;;;7.75;1.60;;;28.00;55.30;;;;;;5053260;28;20020;-64
2022/05/08 09:48:47;;;;;;;4.07;1.42;;;28.20;54.90;;;;;;5053465;28;20056;-67
2022/05/08 09:51:17;;;;;;;6.50;1.85;;;28.20;54.00;;;;;;5052949;28;20067;-66
2022/05/08 09:53:46;;;;;;;6.82;1.50;;;27.80;54.00;;;;;;5053302;28;20108;-63
2022/05/08 09:56:13;;;;;;;3.83;1.20;;;27.70;54.10;;;;;;5053121;28;20025;-65
2022/05/08 09:58:43;;;;;;;7.55;1.67;;;27.60;54.10;;;;;;5053295;28;20063;-61
2022/05/08 10:01:09;;;;;;;9.30;1.88;;;27.20;54.50;;;;;;5053001;28;20132;-64
2022/05/08 10:03:36;;;;;;;8.30;1.92;;;27.20;54.40;;;;;;5052568;28;20448;-63
2022/05/08 10:06:02;;;;;;;6.20;1.55;;;27.40;54.10;;;;;;5053003;28;20017;-65
2022/05/08 10:08:38;;;;;;;6.07;1.90;;;27.70;54.20;;;;;;5052865;28;20408;-66
2022/05/08 10:13:57;;;;;;;8.85;2.13;;;28.70;53.10;;;;;;5051288;28;20102;-65
2022/05/08 10:17:02;;;;;;;7.80;2.08;;;29.20;52.60;;;;;;5053094;28;20028;-63
2022/05/08 10:19:27;;;;;;;8.30;1.85;;;29.50;52.30;;;;;;5052851;28;20025;-62
2022/05/08 10:21:55;;;;;;;5.05;1.70;;;29.80;51.80;;;;;;5052284;28;20078;-61
2022/05/08 10:24:28;;;;;;;8.23;1.35;;;29.80;51.60;;;;;;5052791;28;20024;-62
2022/05/08 10:27:11;;;;;;;9.07;2.08;;;29.70;51.10;;;;;;5051159;28;20029;-62
2022/05/08 10:29:41;;;;;;;6.05;1.92;;;29.30;51.60;;;;;;5051316;28;20060;-63
2022/05/08 10:32:10;;;;;;;7.65;1.90;;;29.20;51.50;;;;;;5049983;28;20139;-62
2022/05/08 10:34:39;;;;;;;9.63;1.83;;;29.10;51.10;;;;;;5055467;28;20017;-62
2022/05/08 10:37:13;;;;;;;6.65;1.30;;;29.10;51.10;;;;;;5054300;28;20017;-62
2022/05/08 10:39:42;;;;;;;9.10;2.03;;;28.90;51.40;;;;;;5052227;28;20067;-62
2022/05/08 10:42:29;;;;;;;6.40;2.13;;;29.00;51.60;;;;;;5059382;28;20383;-63
2022/05/08 10:44:59;;;;;;;6.78;1.70;;;29.60;50.60;;;;;;5072809;28;20025;-62
2022/05/08 10:47:43;;;;;;;8.35;1.60;;;29.70;50.00;;;;;;5072173;28;20027;-62
2022/05/08 10:50:11;;;;;;;8.27;1.73;;;29.40;50.40;;;;;;5067188;28;20017;-63
2022/05/08 10:52:41;;;;;;;6.55;1.55;;;29.20;50.60;;;;;;5052422;28;20028;-62
2022/05/08 10:55:12;;;;;;;4.25;1.30;;;29.20;50.50;;;;;;5052617;28;20092;-62
2022/05/08 10:57:39;;;;;;;9.27;1.80;;;29.40;50.40;;;;;;5052377;28;20021;-63
2022/05/08 11:00:07;;;;;;;5.97;1.63;;;29.60;50.10;;;;;;5052006;28;20423;-62
2022/05/08 11:02:52;;;;;;;7.40;2.08;;;29.50;49.90;;;;;;5052601;28;20028;-62
2022/05/08 11:05:20;;;;;;;4.50;1.52;;;29.50;50.20;;;;;;5052512;28;20021;-62
2022/05/08 11:07:57;;;;;;;5.07;1.70;;;29.80;49.80;;;;;;5052280;28;20025;-62
2022/05/08 11:10:24;;;;;;;11.65;2.25;;;29.80;49.40;;;;;;5051973;28;20024;-62
2022/05/08 11:12:58;;;;;;;8.38;2.28;;;29.40;49.60;;;;;;5051846;28;20441;-62
2022/05/08 11:15:24;;;;;;;5.57;1.95;;;29.20;49.30;;;;;;5049321;28;20112;-62
2022/05/08 11:18:09;;;;;;;5.38;1.55;;;29.20;49.40;;;;;;5051600;28;20108;-62
2022/05/08 11:20:36;;;;;;;6.32;2.17;;;29.50;49.10;;;;;;5050606;28;20392;-62
2022/05/08 11:23:04;;;;;;;9.60;2.15;;;29.50;49.10;;;;;;5050160;28;20017;-61
2022/05/08 11:25:31;;;;;;;5.50;1.55;;;29.30;49.50;;;;;;5055835;28;20035;-62
2022/05/08 11:27:58;;;;;;;5.10;1.60;;;29.40;48.70;;;;;;5055759;28;20025;-62
2022/05/08 11:30:32;;;;;;;6.63;1.70;;;29.20;49.20;;;;;;5055562;28;20033;-62
2022/05/08 11:36:11;;;;;;;3.72;1.65;;;29.10;49.10;;;;;;5056131;28;20031;-62
2022/05/08 11:38:41;;;;;;;6.93;1.70;;;29.10;49.10;;;;;;5056009;28;20095;-63
2022/05/08 11:41:12;;;;;;;9.57;2.13;;;29.10;49.50;;;;;;5055813;28;20025;-62
2022/05/08 11:43:42;;;;;;;8.38;1.95;;;29.30;49.20;;;;;;5055780;28;20021;-63
2022/05/08 11:46:09;;;;;;;9.52;1.65;;;29.50;49.30;;;;;;5055574;28;20021;-63
2022/05/08 11:48:37;;;;;;;8.02;2.03;;;29.80;49.20;;;;;;5055341;28;20238;-63
2022/05/08 11:51:04;;;;;;;9.30;1.80;;;29.90;49.20;;;;;;5055757;28;20017;-63
2022/05/08 11:53:40;;;;;;;6.72;2.45;;;30.10;48.70;;;;;;5055650;28;20027;-63
2022/05/08 11:56:30;;;;;;;8.93;2.05;;;29.90;48.70;;;;;;5055335;28;20419;-63
2022/05/08 11:58:58;;;;;;;9.27;2.03;;;29.80;49.00;;;;;;5055609;28;20084;-62
2022/05/08 12:01:29;;;;;;;7.97;1.90;;;29.70;49.10;;;;;;5051483;28;20438;-62
2022/05/08 12:03:56;;;;;;;6.95;2.03;;;29.60;49.20;;;;;;5035492;28;20049;-63
2022/05/08 12:06:22;;;;;;;5.45;2.03;;;29.70;49.00;;;;;;5035557;28;20029;-63
2022/05/08 12:08:48;;;;;;;6.00;2.15;;;29.60;49.10;;;;;;5033969;28;20029;-62
2022/05/08 12:11:47;;;;;;;9.82;2.10;;;29.60;49.30;;;;;;5035314;28;20022;-62
2022/05/08 12:14:12;;;;;;;6.30;2.00;;;29.70;49.20;;;;;;5027364;28;20041;-63
2022/05/08 12:16:38;;;;;;;8.15;2.10;;;29.80;49.20;;;;;;5054828;28;20029;-62
2022/05/08 12:19:21;;;;;;;9.35;2.17;;;29.90;49.30;;;;;;5054846;28;20021;-63
2022/05/08 12:21:46;;;;;;;8.32;2.13;;;30.00;49.00;;;;;;5055324;28;20021;-63
2022/05/08 12:24:19;;;;;;;5.43;2.05;;;30.20;48.90;;;;;;5055117;28;20326;-63
2022/05/08 12:26:45;;;;;;;7.70;2.15;;;30.30;48.30;;;;;;5055077;28;20040;-63
2022/05/08 12:29:20;;;;;;;6.50;1.90;;;30.10;48.10;;;;;;5054415;28;20045;-63
2022/05/08 12:31:46;;;;;;;6.65;1.90;;;29.70;48.20;;;;;;5053316;28;20086;-63
2022/05/08 12:34:13;;;;;;;7.80;1.85;;;29.10;48.40;;;;;;5054512;28;20017;-62
2022/05/08 12:36:40;;;;;;;6.93;2.30;;;28.40;49.00;;;;;;5054461;28;20020;-62
2022/05/08 12:39:07;;;;;;;11.40;2.50;;;28.00;49.60;;;;;;5054627;28;20025;-63
2022/05/08 12:41:33;;;;;;;7.55;2.03;;;27.70;49.50;;;;;;5052901;28;20031;-62
2022/05/08 12:44:00;;;;;;;7.00;1.85;;;27.10;50.60;;;;;;5052925;28;20115;-62
2022/05/08 12:46:25;;;;;;;6.50;2.63;;;26.70;51.40;;;;;;5053708;28;20025;-62
2022/05/08 12:48:51;;;;;;;8.63;2.03;;;26.40;51.70;;;;;;5054356;28;20338;-62
2022/05/08 12:51:17;;;;;;;6.55;1.73;;;26.20;52.20;;;;;;5054220;28;20119;-62
2022/05/08 12:53:43;;;;;;;9.80;2.10;;;25.90;52.00;;;;;;5054150;28;20025;-62
2022/05/08 12:56:09;;;;;;;6.68;1.80;;;25.30;52.30;;;;;;5054424;28;20029;-62
2022/05/08 13:01:20;;;;;;;10.02;2.30;;;24.50;53.40;;;;;;5053983;28;20476;-62
2022/05/08 13:03:45;;;;;;;6.18;1.73;;;24.20;54.80;;;;;;5052532;28;20029;-62
2022/05/08 13:06:11;;;;;;;5.78;1.85;;;23.90;54.40;;;;;;5054194;28;20037;-62
2022/05/08 13:08:36;;;;;;;7.25;2.13;;;23.50;54.30;;;;;;5053018;28;20642;-62
2022/05/08 13:11:02;;;;;;;5.25;1.85;;;23.10;55.90;;;;;;5053581;28;20036;-62
2022/05/08 13:13:31;;;;;;;5.60;1.80;;;22.70;56.40;;;;;;5054114;28;20028;-62
2022/05/08 13:15:57;;;;;;;7.28;2.15;;;22.50;56.70;;;;;;5052585;28;20061;-62